Main page
METAR-TAF:

METAR-TAF

Airports :

North Battleford Airport

North Battleford, Saskatchewan, Canada

latitude: 52-46N, longitude: 108-15W, elevation: 548 m

Current weather observation

The report was made 13 minutes ago, at 09:57 UTC
Wind 2 kt from the North/Northeast
Temperature 2°C
Humidity 75%
Pressure 1018 hPa
Visibility: 14.5 km
Clear sky

METAR: CYQW 220957Z AUTO 02002KT 9SM CLR 02/M02 A3007 RMK SLP196

Time: 04:10 (10:10 UTC)

Forecast

The report was made 4 hours and 32 minutes ago, at 05:38 UTC
Forecast valid from 22 at 06 UTC to 22 at 18 UTC
Wind 8 kt from the Northeast
Visibility: 10 km
Clear sky
Becoming
from 22 at 06 UTC to 22 at 08 UTC
Wind 3 kt from variable directions
Becoming
from 22 at 15 UTC to 22 at 17 UTC
Wind 10 kt from the Northeast

TAF: CYQW 220538Z 2206/2218 05008KT P6SM SKC BECMG 2206/2208 VRB03KT BECMG 2215/2217 04010KT RMK FCST BASED ON AUTO OBS. NXT FCST BY 221200Z

Weather observations and forecasts of more than 4000 airports (METAR and TAF reports).

The available stations are represented by yellow and red dots on the map.

Hover mouse over dot to see the name of the station.

Then click to see weather observations and forecasts.

To change the map : click on the green buttons with a black cross to zoom in, on the green button with a dash to zoom out, or on the green arrows for adjacent maps.


METAR-TAF: